| time (UTC) | temp F | wind direction | speed knots | gust knots | rain 1hr in | rain 24hr in | rain mn in | humidity % | barometer mb |
| 20260905170100 | 58 | 163 | 0.0 | 1.7 | 0.00 | 0.00 | 0.00 | 67 | 1019.2 |
| 20260905170002 | 58 | 97 | 0.0 | 0.9 | 0.00 | 0.00 | 0.00 | 67 | 1019.2 |
| 20260905164559 | 59 | 130 | 0.0 | 2.6 | 0.00 | 0.00 | 0.00 | 67 | 1019.1 |
| 20260905163057 | 59 | 117 | 0.0 | 1.7 | 0.00 | 0.00 | 0.00 | 66 | 1018.9 |
| 20260905161558 | 59 | 134 | 0.0 | 0.9 | 0.00 | 0.00 | 0.00 | 69 | 1018.9 |
| 20260905160055 | 60 | 96 | 0.0 | 0.9 | 0.00 | 0.00 | 0.00 | 69 | 1018.8 |
| 20260905154557 | 60 | 307 | 0.0 | 4.3 | 0.00 | 0.00 | 0.00 | 66 | 1018.7 |
| 20260905153053 | 60 | 146 | 0.0 | 1.7 | 0.00 | 0.00 | 0.00 | 68 | 1018.6 |
| 20260905151553 | 60 | 89 | 0.0 | 1.7 | 0.00 | 0.00 | 0.00 | 69 | 1018.4 |
| 20260905150055 | 61 | 129 | 0.0 | 2.6 | 0.00 | 0.00 | 0.00 | 68 | 1018.3 |
| 20260905144554 | 61 | 117 | 0.0 | 3.5 | 0.00 | 0.00 | 0.00 | 66 | 1018.4 |
| 20260905141543 | 61 | 150 | 0.0 | 2.6 | 0.00 | 0.00 | 0.00 | 68 | 1018.3 |
| 20260905140042 | 62 | 63 | 0.0 | 1.7 | 0.00 | 0.00 | 0.00 | 66 | 1018.3 |
| 20260905134549 | 62 | 119 | 0.0 | 3.5 | 0.00 | 0.00 | 0.00 | 65 | 1018.3 |
| 20260905133039 | 63 | 82 | 0.0 | 4.3 | 0.00 | 0.00 | 0.00 | 62 | 1018.4 |
| 20260905131542 | 64 | 133 | 0.0 | 3.5 | 0.00 | 0.00 | 0.00 | 61 | 1018.5 |
| 20260905130038 | 64 | 113 | 0.0 | 2.6 | 0.00 | 0.00 | 0.00 | 65 | 1018.6 |
| 20260905124546 | 67 | 203 | 0.0 | 3.5 | 0.00 | 0.00 | 0.00 | 57 | 1018.5 |
| 20260905123037 | 67 | 120 | 0.0 | 5.2 | 0.00 | 0.00 | 0.00 | 61 | 1018.5 |
| 20260905121536 | 66 | 285 | 1.7 | 4.3 | 0.00 | 0.00 | 0.00 | 64 | 1018.5 |
| 20260905120037 | 64 | 124 | 0.9 | 3.5 | 0.00 | 0.00 | 0.00 | 69 | 1018.5 |
| 20260905114534 | 64 | 126 | 0.0 | 0.9 | 0.00 | 0.00 | 0.00 | 67 | 1018.7 |
| 20260905113133 | 65 | 96 | 0.0 | 1.7 | 0.00 | 0.00 | 0.00 | 69 | 1018.3 |
| 20260905111531 | 64 | 108 | 0.0 | 1.7 | 0.00 | 0.00 | 0.00 | 72 | 1018.4 |
| 20260905110031 | 62 | 120 | 0.0 | 1.7 | 0.00 | 0.00 | 0.00 | 73 | 1018.4 |
| 20260905104541 | 65 | 89 | 0.0 | 4.3 | 0.00 | 0.00 | 0.00 | 70 | 1018.2 |
| 20260905103033 | 64 | 94 | 0.9 | 3.5 | 0.00 | 0.00 | 0.00 | 70 | 1018.2 |
| 20260905101529 | 63 | 94 | 0.0 | 2.6 | 0.00 | 0.00 | 0.00 | 74 | 1018.1 |
| 20260905100028 | 63 | 97 | 0.0 | 4.3 | 0.00 | 0.00 | 0.00 | 77 | 1018.2 |
| 20260905094527 | 60 | 348 | 0.0 | 2.6 | 0.00 | 0.00 | 0.00 | 81 | 1018.4 |
| 20260905093026 | 59 | 106 | 0.0 | 5.2 | 0.00 | 0.00 | 0.00 | 82 | 1018.4 |
| 20260905091526 | 58 | 87 | 0.0 | 2.6 | 0.00 | 0.00 | 0.00 | 84 | 1018.3 |
| 20260905090026 | 57 | 323 | 0.9 | 3.5 | 0.00 | 0.00 | 0.00 | 84 | 1018.5 |
| 20260905084532 | 58 | 129 | 0.0 | 0.9 | 0.00 | 0.00 | 0.00 | 87 | 1018.4 |
| 20260905083021 | 57 | 104 | 0.0 | 0.9 | 0.00 | 0.00 | 0.00 | 90 | 1018.3 |
| 20260905081520 | 54 | 214 | 0.0 | 1.7 | 0.00 | 0.00 | 0.00 | 93 | 1018.2 |
| 20260905080034 | 53 | 155 | 0.0 | 0.9 | 0.00 | 0.00 | 0.00 | 93 | 1018.0 |
| 20260905074518 | 53 | 141 | 0.0 | 0.9 | 0.00 | 0.00 | 0.00 | 93 | 1017.7 |
| 20260905073033 | 53 | 112 | 0.0 | 0.9 | 0.00 | 0.00 | 0.00 | 94 | 1017.7 |
| 20260905071516 | 53 | 99 | 0.0 | 0.9 | 0.00 | 0.00 | 0.00 | 94 | 1017.6 |
| 20260905070014 | 52 | 136 | 0.0 | 3.5 | 0.00 | 0.00 | 0.00 | 94 | 1017.5 |
| 20260905064515 | 52 | 171 | 0.0 | 1.7 | 0.00 | 0.00 | 0.00 | 94 | 1017.2 |
| 20260905063012 | 52 | 146 | 0.0 | 2.6 | 0.00 | 0.00 | 0.00 | 94 | 1017.0 |
| 20260905061510 | 53 | 91 | 0.0 | 1.7 | 0.00 | 0.00 | 0.00 | 94 | 1017.0 |
| 20260905060008 | 53 | 117 | 0.0 | 0.9 | 0.00 | 0.00 | 0.00 | 94 | 1017.0 |
| 20260905054507 | 53 | 178 | 0.0 | 4.3 | 0.00 | 0.00 | 0.00 | 94 | 1016.5 |
| 20260905053005 | 54 | 128 | 0.0 | 0.9 | 0.00 | 0.00 | 0.00 | 95 | 1016.7 |
| 20260905051503 | 54 | 323 | 0.0 | 0.0 | 0.00 | 0.00 | 0.00 | 94 | 1015.8 |
| 20260905050002 | 54 | 323 | 0.0 | 0.0 | 0.00 | 0.00 | 0.00 | 94 | 1015.8 |
| 20260905044603 | 54 | 323 | 0.0 | 2.6 | 0.00 | 0.00 | 0.00 | 94 | 1015.8 |
| 20260905043119 | 54 | 122 | 0.0 | 0.9 | 0.00 | 0.00 | 0.00 | 93 | 1015.9 |
| 20260905041558 | 54 | 153 | 0.0 | 0.0 | 0.00 | 0.00 | 0.00 | 92 | 1015.9 |
| 20260905040117 | 55 | 164 | 0.0 | 1.7 | 0.00 | 0.00 | 0.00 | 92 | 1016.1 |
| 20260905034558 | 55 | 76 | 0.0 | 0.9 | 0.00 | 0.00 | 0.00 | 92 | 1015.4 |
| 20260905033055 | 55 | 76 | 0.0 | 0.0 | 0.00 | 0.00 | 0.00 | 92 | 1015.5 |
| 20260905031552 | 55 | 76 | 0.0 | 1.7 | 0.00 | 0.00 | 0.00 | 92 | 1015.2 |
| 20260905030050 | 56 | 75 | 0.0 | 0.9 | 0.00 | 0.00 | 0.00 | 92 | 1015.2 |
| 20260905024549 | 56 | 88 | 0.0 | 0.9 | 0.00 | 0.00 | 0.00 | 92 | 1014.9 |
| 20260905023053 | 56 | 88 | 0.0 | 0.0 | 0.00 | 0.00 | 0.00 | 91 | 1015.0 |
| 20260905021549 | 56 | 88 | 0.0 | 0.9 | 0.00 | 0.00 | 0.00 | 91 | 1014.5 |
| 20260905020043 | 57 | 88 | 0.0 | 0.0 | 0.00 | 0.00 | 0.00 | 91 | 1014.4 |
| 20260905014540 | 57 | 89 | 0.0 | 0.0 | 0.00 | 0.00 | 0.00 | 90 | 1014.4 |
| 20260905013037 | 58 | 88 | 0.0 | 3.5 | 0.00 | 0.00 | 0.00 | 89 | 1014.3 |
| 20260905011536 | 59 | 135 | 0.0 | 0.9 | 0.00 | 0.00 | 0.00 | 89 | 1014.2 |
| 20260905010033 | 59 | 84 | 0.0 | 0.9 | 0.00 | 0.00 | 0.00 | 89 | 1014.5 |
| 20260905004530 | 60 | 115 | 0.0 | 0.9 | 0.00 | 0.00 | 0.00 | 88 | 1014.1 |
| 20260905003027 | 61 | 115 | 0.0 | 0.9 | 0.00 | 0.00 | 0.00 | 84 | 1013.8 |
| 20260905001529 | 62 | 115 | 0.0 | 0.9 | 0.00 | 0.00 | 0.00 | 80 | 1013.0 |
| 20260905000032 | 62 | 115 | 0.0 | 0.9 | 0.00 | 0.00 | 0.00 | 79 | 1013.1 |
| 20260904234532 | 61 | 122 | 0.0 | 0.0 | 0.00 | 0.00 | 0.00 | 82 | 1013.4 |
| 20260904233025 | 62 | 134 | 0.0 | 0.0 | 0.00 | 0.00 | 0.00 | 82 | 1012.5 |
| 20260904231518 | 62 | 135 | 0.0 | 2.6 | 0.00 | 0.00 | 0.00 | 81 | 1011.9 |
| 20260904230015 | 63 | 102 | 0.0 | 0.9 | 0.00 | 0.00 | 0.00 | 79 | 1011.9 |
| 20260904224520 | 65 | 131 | 0.0 | 0.0 | 0.00 | 0.00 | 0.00 | 79 | 1011.8 |
| 20260904223013 | 66 | 147 | 0.0 | 0.0 | 0.00 | 0.00 | 0.00 | 76 | 1011.9 |
| 20260904221507 | 67 | 148 | 0.0 | 0.0 | 0.00 | 0.00 | 0.00 | 74 | 1011.8 |
| 20260904220008 | 67 | 148 | 0.0 | 1.7 | 0.00 | 0.00 | 0.00 | 74 | 1011.8 |
| 20260904214508 | 67 | 148 | 0.0 | 0.0 | 0.00 | 0.00 | 0.00 | 73 | 1011.7 |
| 20260904213003 | 68 | 154 | 0.0 | 1.7 | 0.00 | 0.00 | 0.00 | 73 | 1011.5 |
| 20260904211505 | 68 | 141 | 0.0 | 0.9 | 0.00 | 0.00 | 0.00 | 72 | 1011.5 |
| 20260904210101 | 68 | 141 | 0.0 | 0.0 | 0.00 | 0.00 | 0.00 | 73 | 1011.4 |
| 20260904204601 | 68 | 141 | 0.0 | 0.0 | 0.00 | 0.00 | 0.00 | 72 | 1011.7 |
| 20260904203059 | 69 | 141 | 0.0 | 0.9 | 0.00 | 0.00 | 0.00 | 72 | 1011.7 |
| 20260904201559 | 68 | 119 | 0.0 | 0.9 | 0.00 | 0.00 | 0.00 | 72 | 1011.8 |
| 20260904200056 | 67 | 119 | 0.0 | 0.0 | 0.00 | 0.00 | 0.00 | 74 | 1012.0 |
| 20260904194603 | 67 | 119 | 0.0 | 0.0 | 0.00 | 0.00 | 0.00 | 75 | 1012.1 |
| 20260904193058 | 67 | 120 | 0.0 | 0.0 | 0.00 | 0.00 | 0.00 | 75 | 1012.1 |
| 20260904191554 | 67 | 74 | 0.0 | 0.0 | 0.00 | 0.00 | 0.00 | 76 | 1012.0 |
| 20260904190052 | 67 | 74 | 0.0 | 0.0 | 0.00 | 0.00 | 0.00 | 75 | 1012.2 |
| 20260904184557 | 68 | 74 | 0.0 | 0.0 | 0.00 | 0.00 | 0.00 | 75 | 1012.3 |
| 20260904183106 | 68 | 74 | 0.0 | 0.0 | 0.00 | 0.00 | 0.00 | 75 | 1012.5 |
| 20260904181552 | 67 | 74 | 0.0 | 0.0 | 0.00 | 0.00 | 0.00 | 76 | 1012.3 |
| 20260904180114 | 67 | 74 | 0.0 | 0.0 | 0.00 | 0.00 | 0.00 | 76 | 1012.4 |
| 20260904174602 | 67 | 74 | 0.0 | 0.0 | 0.00 | 0.00 | 0.00 | 77 | 1012.4 |
| 20260904173051 | 68 | 74 | 0.0 | 0.0 | 0.00 | 0.00 | 0.00 | 76 | 1012.4 |
| 20260904171554 | 69 | 74 | 0.0 | 0.0 | 0.00 | 0.00 | 0.00 | 74 | 1012.3 |